(°C)
10°
10°
11°
12°
13°
13°
13°
(°C)
10°
11°
11°
12°
J
J
JV
VJV
VSV
V
V
(km/h)
5-11
4-12
3-10
2-7
3-6
3-7
2-9
(mm)
0
0
0
0
0
0
0
(%)
15
14
9
9
9
14
10

Sluneční výška

/ 43.2°
sun-icon
UV 4
05:53
20:52
Ubývající měsíc (8°)
06:20
21:42

METAR pro Rothenburg (LSME)

Čas Podmínky Teplota/
Rosný bod
Vítr Viditelnost Počasí Oblaky Tlak Změna Nezpracované
VFR 10°C / 6°C variable 1kt >10km - Scattered Clouds 4000ft 1015 - LSME 120750Z VRB01KT 9999 SCT040 BKN052 10/06 Q1015 RMK BLU
VFR 9°C / 6°C 230º 2kt >10km Light Rain Few Clouds 3200ft 1015 - LSME 120720Z 23002KT 9999 -RA FEW032 BKN037 09/06 Q1015 RMK BLU
VFR 9°C / 7°C variable 0kt >10km Light Rain Few Clouds 2800ft 1015 - LSME 120650Z 00000KT 9999 -RA FEW028 OVC039 09/07 Q1015 RMK BLU
10°C / 6°C 280º 2kt in the Vicinity Showers Broken Clouds 4000ft 1015 - LSME 120620Z 28002KT //// VCSH BKN040 OVC045 10/06 Q1015 RMK BLU
VFR 9°C / 6°C variable 2kt >10km - Broken Clouds 4000ft 1015 - LSME 120550Z VRB02KT 9999 BKN040 BKN056 OVC063 09/06 Q1015 RMK BLU
VFR 8°C / 7°C variable 2kt >10km - Few Clouds 3000ft 1015 - LSME 120520Z VRB02KT 9999 FEW030 OVC041 08/07 Q1015 RMK BLU
VFR 8°C / 6°C variable 2kt >10km - Overcast 4100ft 1015 - LSME 120450Z VRB02KT 9999 OVC041 08/06 Q1015 RMK BLU
8°C / 6°C variable 1kt - Broken Clouds 4200ft 1015 - LSME 120420Z AUTO VRB01KT 9999NDV BKN042 OVC057 08/06 Q1015 RMK
9°C / 5°C variable 2kt - Few Clouds 4200ft 1015 - LSME 120350Z AUTO VRB02KT 9999NDV FEW042 OVC055 09/05 Q1015 RMK
9°C / 5°C 240º 4kt - Broken Clouds 4300ft 1015 - LSME 120320Z AUTO 24004KT 9999NDV BKN043 OVC072 09/05 Q1015 RMK
9°C / 5°C 240º 7kt - Broken Clouds 4400ft 1015 - LSME 120250Z AUTO 24007KT 9999NDV BKN044 OVC061 09/05 Q1015 RMK
9°C / 5°C 240º 8kt - Overcast 4000ft 1015 - LSME 120220Z AUTO 24008KT 9999NDV OVC040 09/05 Q1015 RMK
9°C / 6°C 240º variable 210º to 280º 7kt - Scattered Clouds 3200ft 1015 - LSME 120150Z AUTO 24007KT 210V280 9999NDV SCT032 OVC037 09/06 Q1015 RMK
10°C / 6°C 260º 6kt - Scattered Clouds 3000ft 1015 - LSME 120120Z AUTO 26006KT 9999NDV SCT030 OVC035 10/06 Q1015 RMK
9°C / 7°C 260º 5kt Light Rain Overcast 3400ft 1015 - LSME 120050Z AUTO 26005KT 9999NDV -RA OVC034 09/07 Q1015 RMK
9°C / 7°C variable 2kt Light Rain Broken Clouds 3600ft 1015 - LSME 120020Z AUTO VRB02KT 9999NDV -RA BKN036 OVC043 09/07 Q1015 RMK
9°C / 8°C 220º 4kt Light Rain Few Clouds 4000ft 1015 - LSME 112350Z AUTO 22004KT 9999NDV -RA FEW040 OVC046 09/08 Q1015 RMK
9°C / 8°C 220º variable 190º to 250º 6kt Light Rain Broken Clouds 4000ft 1015 - LSME 112320Z AUTO 22006KT 190V250 9999NDV -RA BKN040 OVC049 09/08 Q1015 RMK
9°C / 8°C 200º variable 150º to 250º 4kt Light Rain Broken Clouds 3500ft 1015 - LSME 112220Z AUTO 20004KT 150V250 9999NDV -RA BKN035 OVC042 09/08 Q1015 RERA RMK
9°C / 8°C 250º variable 210º to 280º 3kt Rain Broken Clouds 3500ft 1015 - LSME 112150Z AUTO 25003KT 210V280 9999NDV RA BKN035 OVC044 09/08 Q1015 RMK
10°C / 8°C 280º 4kt Light Rain Broken Clouds 3800ft 1015 - LSME 112120Z AUTO 28004KT 9999NDV -RA BKN038 OVC044 10/08 Q1015 RMK
10°C / 8°C 290º variable 230º to 330º 3kt Light Rain Overcast 4600ft 1014 - LSME 112050Z AUTO 29003KT 230V330 9999NDV -RA OVC046 10/08 Q1014 RMK
10°C / 8°C 210º variable 160º to 230º 7kt Light Rain Few Clouds 4000ft 1014 - LSME 112020Z AUTO 21007KT 160V230 9999NDV -RA FEW040 SCT046 OVC052 10/08 Q1014 RERA RMK
10°C / 9°C 210º variable 140º to 250º 5kt Rain Scattered Clouds 3500ft 1014 - LSME 111950Z AUTO 21005KT 140V250 9000NDV RA SCT035 SCT040 OVC047 10/09 Q1014 RMK

VFR

10°C / 6°C

[Víc]
Vítr variable 1kt
Viditelnost >10km
Počasí -
Oblaky Scattered Clouds 4000ft
Tlak 1015
Změna -
Nezpracované LSME 120750Z VRB01KT 9999 SCT040 BKN052 10/06 Q1015 RMK BLU

VFR

9°C / 6°C

[Víc]
Vítr 230º 2kt
Viditelnost >10km
Počasí Light Rain
Oblaky Few Clouds 3200ft
Tlak 1015
Změna -
Nezpracované LSME 120720Z 23002KT 9999 -RA FEW032 BKN037 09/06 Q1015 RMK BLU

VFR

9°C / 7°C

[Víc]
Vítr variable 0kt
Viditelnost >10km
Počasí Light Rain
Oblaky Few Clouds 2800ft
Tlak 1015
Změna -
Nezpracované LSME 120650Z 00000KT 9999 -RA FEW028 OVC039 09/07 Q1015 RMK BLU

10°C / 6°C

[Víc]
Vítr 280º 2kt
Viditelnost
Počasí in the Vicinity Showers
Oblaky Broken Clouds 4000ft
Tlak 1015
Změna -
Nezpracované LSME 120620Z 28002KT //// VCSH BKN040 OVC045 10/06 Q1015 RMK BLU

VFR

9°C / 6°C

[Víc]
Vítr variable 2kt
Viditelnost >10km
Počasí -
Oblaky Broken Clouds 4000ft
Tlak 1015
Změna -
Nezpracované LSME 120550Z VRB02KT 9999 BKN040 BKN056 OVC063 09/06 Q1015 RMK BLU

VFR

8°C / 7°C

[Víc]
Vítr variable 2kt
Viditelnost >10km
Počasí -
Oblaky Few Clouds 3000ft
Tlak 1015
Změna -
Nezpracované LSME 120520Z VRB02KT 9999 FEW030 OVC041 08/07 Q1015 RMK BLU

VFR

8°C / 6°C

[Víc]
Vítr variable 2kt
Viditelnost >10km
Počasí -
Oblaky Overcast 4100ft
Tlak 1015
Změna -
Nezpracované LSME 120450Z VRB02KT 9999 OVC041 08/06 Q1015 RMK BLU

8°C / 6°C

[Víc]
Vítr variable 1kt
Viditelnost
Počasí -
Oblaky Broken Clouds 4200ft
Tlak 1015
Změna -
Nezpracované LSME 120420Z AUTO VRB01KT 9999NDV BKN042 OVC057 08/06 Q1015 RMK

9°C / 5°C

[Víc]
Vítr variable 2kt
Viditelnost
Počasí -
Oblaky Few Clouds 4200ft
Tlak 1015
Změna -
Nezpracované LSME 120350Z AUTO VRB02KT 9999NDV FEW042 OVC055 09/05 Q1015 RMK

9°C / 5°C

[Víc]
Vítr 240º 4kt
Viditelnost
Počasí -
Oblaky Broken Clouds 4300ft
Tlak 1015
Změna -
Nezpracované LSME 120320Z AUTO 24004KT 9999NDV BKN043 OVC072 09/05 Q1015 RMK

9°C / 5°C

[Víc]
Vítr 240º 7kt
Viditelnost
Počasí -
Oblaky Broken Clouds 4400ft
Tlak 1015
Změna -
Nezpracované LSME 120250Z AUTO 24007KT 9999NDV BKN044 OVC061 09/05 Q1015 RMK

9°C / 5°C

[Víc]
Vítr 240º 8kt
Viditelnost
Počasí -
Oblaky Overcast 4000ft
Tlak 1015
Změna -
Nezpracované LSME 120220Z AUTO 24008KT 9999NDV OVC040 09/05 Q1015 RMK

9°C / 6°C

[Víc]
Vítr 240º variable 210º to 280º 7kt
Viditelnost
Počasí -
Oblaky Scattered Clouds 3200ft
Tlak 1015
Změna -
Nezpracované LSME 120150Z AUTO 24007KT 210V280 9999NDV SCT032 OVC037 09/06 Q1015 RMK

10°C / 6°C

[Víc]
Vítr 260º 6kt
Viditelnost
Počasí -
Oblaky Scattered Clouds 3000ft
Tlak 1015
Změna -
Nezpracované LSME 120120Z AUTO 26006KT 9999NDV SCT030 OVC035 10/06 Q1015 RMK

9°C / 7°C

[Víc]
Vítr 260º 5kt
Viditelnost
Počasí Light Rain
Oblaky Overcast 3400ft
Tlak 1015
Změna -
Nezpracované LSME 120050Z AUTO 26005KT 9999NDV -RA OVC034 09/07 Q1015 RMK

9°C / 7°C

[Víc]
Vítr variable 2kt
Viditelnost
Počasí Light Rain
Oblaky Broken Clouds 3600ft
Tlak 1015
Změna -
Nezpracované LSME 120020Z AUTO VRB02KT 9999NDV -RA BKN036 OVC043 09/07 Q1015 RMK

9°C / 8°C

[Víc]
Vítr 220º 4kt
Viditelnost
Počasí Light Rain
Oblaky Few Clouds 4000ft
Tlak 1015
Změna -
Nezpracované LSME 112350Z AUTO 22004KT 9999NDV -RA FEW040 OVC046 09/08 Q1015 RMK

9°C / 8°C

[Víc]
Vítr 220º variable 190º to 250º 6kt
Viditelnost
Počasí Light Rain
Oblaky Broken Clouds 4000ft
Tlak 1015
Změna -
Nezpracované LSME 112320Z AUTO 22006KT 190V250 9999NDV -RA BKN040 OVC049 09/08 Q1015 RMK

9°C / 8°C

[Víc]
Vítr 200º variable 150º to 250º 4kt
Viditelnost
Počasí Light Rain
Oblaky Broken Clouds 3500ft
Tlak 1015
Změna -
Nezpracované LSME 112220Z AUTO 20004KT 150V250 9999NDV -RA BKN035 OVC042 09/08 Q1015 RERA RMK

9°C / 8°C

[Víc]
Vítr 250º variable 210º to 280º 3kt
Viditelnost
Počasí Rain
Oblaky Broken Clouds 3500ft
Tlak 1015
Změna -
Nezpracované LSME 112150Z AUTO 25003KT 210V280 9999NDV RA BKN035 OVC044 09/08 Q1015 RMK

10°C / 8°C

[Víc]
Vítr 280º 4kt
Viditelnost
Počasí Light Rain
Oblaky Broken Clouds 3800ft
Tlak 1015
Změna -
Nezpracované LSME 112120Z AUTO 28004KT 9999NDV -RA BKN038 OVC044 10/08 Q1015 RMK

10°C / 8°C

[Víc]
Vítr 290º variable 230º to 330º 3kt
Viditelnost
Počasí Light Rain
Oblaky Overcast 4600ft
Tlak 1014
Změna -
Nezpracované LSME 112050Z AUTO 29003KT 230V330 9999NDV -RA OVC046 10/08 Q1014 RMK

10°C / 8°C

[Víc]
Vítr 210º variable 160º to 230º 7kt
Viditelnost
Počasí Light Rain
Oblaky Few Clouds 4000ft
Tlak 1014
Změna -
Nezpracované LSME 112020Z AUTO 21007KT 160V230 9999NDV -RA FEW040 SCT046 OVC052 10/08 Q1014 RERA RMK

10°C / 9°C

[Víc]
Vítr 210º variable 140º to 250º 5kt
Viditelnost
Počasí Rain
Oblaky Scattered Clouds 3500ft
Tlak 1014
Změna -
Nezpracované LSME 111950Z AUTO 21005KT 140V250 9000NDV RA SCT035 SCT040 OVC047 10/09 Q1014 RMK

Aktuální snímky ze satelitu a srážky pro Rothenburg, Švýcarsko

  • Srážky:
  • <1 mm
  • 1-2 mm
  • 2-5 mm
  • >5 mm

Značka polohy je umístěna na Rothenburg. [Víc]

Satelitní snímek v reálném čase kombinuje viditelné světlo během dne s infračerveným zářením během noci. V noci není obraz tmavý, protože infračervené záření dokáže detekovat teplotní rozdíly. Nízká oblačnost a mlha se bohužel těžko odlišují od pozemních teplot, a proto mohou být během noci téměř neviditelné. Satelitní snímky z Meteosatu pro Evropu jsou aktualizovány v reálném čase každých 5 minut. Snímky z GOES-16/GOES-17 (Severní a Jižní Amerika) a Himawari (Asie) jsou aktualizovány) každých 10 minut.

Srážky jsou odhadované na základě radaru a satelitů. V noci jsou odhady srážek ze satelitů méně přesné než během dne. Oranžové křížky označují místa, kde byl zaznamenán blesk (za Evropa).

Copyright 2021 EUMETSAT / meteoblue. Údaje o blescích poskytuje nowcast.

Radar a krátkodobá předpověď srážek pro Rothenburg

Značka lokality je umístněna na Rothenburg. Tato animace ukazuje srážky zaznamenané radarem za poslední hodinu a také 1h předpověď. Mrholení nebo slabé sněžení mohou být pro radar neviditelné. Intenzita srážek používá barevní kód od světle modré po tmavě fialovou.

Aktuální stav počasí a varování

EUMETNET – MeteoAlarm

pictomap

Zdroj: MeteoSwiss

Mezi touto webovou stránkou a stránkou www.meteoalarm.eu může dojít k časovému zpoždění. Pro nejaktuálnější informace o stupních výstrahy zveřejňované účastnickými Národními meteorologickými agenturami prosím použijte webové stránky www.meteoalarm.eu.